Greenwood, Arkansas
Current Conditions -  °F | °C
As of 3:53 PM on Monday 22 Dec 2014 (Local Time) from KFSM Reporting Station
Haze Haze  
Wind Chill: 53°   Ceiling: 2500
Heat Index: 53°   Visibility: 9mi
Dew Point: 50°   Wind: 6mph
Humidity: 89%   Direction: 80°E
Pressure: 29.52"   Gusts: NA
Location:  35.22°N, 94.26°W
Report Text: KFSM 222153Z 08005KT 9SM BR OVC025 12/10 A2952 RMK AO2 RAE01 SLP996 P0000 T01170100
Loading
Personal Weather Stations






























Interactive Weather Map New forecast layout! Learn more

10-Day Weather Forecast

Advertisements
Track Severe Weather on mobile